createdAt,value
2018-10-04T17:18:48.844Z,14.04
2018-10-04T17:19:50.220Z,13.94
2018-10-04T17:20:51.550Z,14.04
2018-10-04T17:21:52.930Z,14.05
2018-10-04T17:22:54.325Z,14.05
2018-10-04T17:23:55.732Z,14.02
2018-10-04T17:24:57.067Z,13.99
2018-10-04T17:25:58.449Z,14.04
2018-10-04T17:26:59.833Z,14.04
2018-10-04T17:28:01.233Z,14.01
2018-10-04T17:29:02.614Z,14.02
2018-10-04T17:30:03.959Z,14.04
2018-10-04T17:31:05.299Z,14.02
2018-10-04T17:32:06.680Z,13.93
2018-10-04T17:33:08.075Z,14.02
2018-10-04T17:34:09.427Z,13.99
2018-10-04T17:35:10.786Z,14.02
2018-10-04T17:36:12.174Z,14.06
2018-10-04T17:37:13.555Z,13.99
2018-10-04T17:38:14.948Z,14.01
2018-10-04T17:39:16.302Z,14.08
2018-10-04T17:40:17.693Z,13.99
2018-10-04T17:41:19.056Z,14.02
2018-10-04T17:42:20.445Z,14.08
2018-10-04T17:43:21.838Z,14.08
2018-10-04T17:44:23.235Z,14.06
2018-10-04T17:45:24.642Z,14.12
2018-10-04T17:46:26.049Z,14.02
2018-10-04T17:47:27.538Z,14.06
2018-10-04T17:48:29.689Z,14.11
2018-10-04T17:49:31.079Z,14.13
2018-10-04T17:50:33.326Z,14.12
2018-10-04T17:51:34.664Z,14.09
2018-10-04T17:52:36.079Z,14.09
2018-10-04T17:53:37.547Z,14.09
2018-10-04T17:54:38.843Z,14.06
2018-10-04T17:55:42.389Z,14.11
2018-10-04T17:56:44.069Z,14.11
2018-10-04T17:57:45.495Z,14.16
2018-10-04T17:58:46.898Z,14.11
2018-10-04T17:59:49.067Z,14.12
2018-10-04T18:00:50.479Z,14.11
2018-10-04T18:01:51.878Z,14.11
2018-10-04T18:02:53.297Z,14.06
2018-10-04T18:03:55.292Z,14.09
2018-10-04T18:04:56.693Z,14.12
2018-10-04T18:05:59.123Z,14.09
2018-10-04T18:07:00.538Z,14.13
2018-10-04T18:08:01.960Z,14.09
2018-10-04T18:09:03.374Z,14.17
2018-10-04T18:10:05.708Z,14.19
2018-10-04T18:11:07.133Z,14.19
2018-10-04T18:12:08.540Z,14.20
2018-10-04T18:13:09.949Z,14.17
2018-10-04T18:14:11.389Z,14.06
2018-10-04T18:15:12.783Z,14.16
2018-10-04T18:16:14.254Z,14.20
2018-10-04T18:17:15.655Z,14.20
2018-10-04T18:18:17.070Z,14.17
2018-10-04T18:19:19.298Z,14.21
2018-10-04T18:20:21.157Z,14.26
2018-10-04T18:21:23.469Z,14.13
2018-10-04T18:22:25.793Z,14.19
2018-10-04T18:23:27.279Z,14.21
2018-10-04T18:24:30.115Z,14.23
2018-10-04T18:25:32.377Z,14.23
2018-10-04T18:26:34.918Z,14.17
2018-10-04T18:27:38.579Z,14.26
2018-10-04T18:28:41.755Z,14.23
2018-10-04T18:29:43.234Z,14.23
2018-10-04T18:30:45.512Z,14.21
2018-10-04T18:31:47.723Z,14.21
2018-10-04T18:32:49.919Z,14.19
2018-10-04T18:33:52.184Z,14.20
2018-10-04T18:34:54.714Z,14.20
2018-10-04T18:35:56.966Z,14.23
2018-10-04T18:36:59.058Z,14.20
2018-10-04T18:38:02.138Z,14.13
2018-10-04T18:39:04.992Z,14.20
2018-10-04T18:40:07.055Z,14.17
2018-10-04T18:41:09.707Z,14.20
2018-10-04T18:42:12.403Z,14.21
2018-10-04T18:43:14.525Z,14.13
2018-10-04T18:44:18.404Z,14.23
2018-10-04T18:45:18.907Z,14.21
2018-10-04T18:46:21.646Z,14.17
2018-10-04T18:47:24.000Z,14.21
2018-10-04T18:48:28.736Z,14.17
2018-10-04T18:49:30.229Z,14.17
2018-10-04T18:50:32.296Z,14.21
2018-10-04T18:51:34.413Z,14.17
2018-10-04T18:52:36.056Z,14.19
2018-10-04T18:53:38.133Z,14.19
2018-10-04T18:54:41.908Z,14.21
2018-10-04T18:55:42.705Z,14.21
2018-10-04T18:56:44.792Z,14.17
2018-10-04T18:57:47.694Z,14.21
2018-10-04T18:58:50.073Z,14.16
2018-10-04T18:59:52.154Z,14.19
2018-10-04T19:00:53.557Z,14.13
2018-10-04T19:01:54.977Z,14.06
2018-10-04T19:02:57.374Z,14.08
2018-10-04T19:03:59.671Z,14.11
2018-10-04T19:05:01.753Z,14.11
2018-10-04T19:06:03.106Z,14.12
2018-10-04T19:07:05.470Z,14.08
2018-10-04T19:08:08.398Z,14.12
2018-10-04T19:09:10.768Z,14.11
2018-10-04T19:10:12.816Z,14.08
2018-10-04T19:11:14.917Z,14.02
2018-10-04T19:12:16.536Z,14.05
2018-10-04T19:13:17.961Z,13.98
2018-10-04T19:14:20.853Z,14.05
2018-10-04T19:15:23.330Z,14.05
2018-10-04T19:16:25.665Z,14.06
2018-10-04T19:17:29.491Z,14.06
2018-10-04T19:18:31.678Z,14.06
2018-10-04T19:19:35.484Z,14.02
2018-10-04T19:20:39.724Z,14.08
2018-10-04T19:21:41.841Z,14.02
2018-10-04T19:22:43.981Z,14.06
2018-10-04T19:23:48.118Z,14.04
2018-10-04T19:24:50.409Z,13.99
2018-10-04T19:25:53.169Z,14.05
2018-10-04T19:26:55.954Z,14.04
2018-10-04T19:27:57.957Z,14.04
2018-10-04T19:28:59.461Z,14.05
2018-10-04T19:30:01.604Z,13.98
2018-10-04T19:31:04.509Z,13.98
2018-10-04T19:32:06.832Z,13.94
2018-10-04T19:33:11.418Z,13.99
2018-10-04T19:34:12.784Z,13.93
2018-10-04T19:35:15.695Z,14.04
2018-10-04T19:36:18.095Z,13.99
2018-10-04T19:37:20.180Z,13.94
2018-10-04T19:38:22.369Z,13.98
2018-10-04T19:39:24.686Z,13.91
2018-10-04T19:40:27.418Z,13.87
2018-10-04T19:41:29.427Z,13.91
2018-10-04T19:42:31.933Z,13.87
2018-10-04T19:43:33.527Z,13.83
2018-10-04T19:44:35.654Z,13.86
2018-10-04T19:45:38.099Z,13.98
2018-10-04T19:46:39.548Z,13.91
2018-10-04T19:47:40.918Z,13.91
2018-10-04T19:48:43.344Z,13.96
2018-10-04T19:49:46.227Z,13.99
2018-10-04T19:50:49.035Z,13.96
2018-10-04T19:51:50.435Z,13.90
2018-10-04T19:52:52.675Z,13.91
2018-10-04T19:53:54.676Z,13.94
2018-10-04T19:54:56.618Z,13.94
2018-10-04T19:55:58.938Z,13.93
2018-10-04T19:57:00.825Z,13.84
2018-10-04T19:58:04.705Z,13.86
2018-10-04T19:59:06.924Z,13.90
2018-10-04T20:00:07.578Z,13.88
2018-10-04T20:01:10.782Z,13.83
2018-10-04T20:02:12.229Z,13.90
2018-10-04T20:03:14.264Z,13.80
2018-10-04T20:04:15.646Z,13.91
2018-10-04T20:05:18.037Z,14.01
2018-10-04T20:06:20.434Z,13.90
2018-10-04T20:07:20.870Z,13.90
2018-10-04T20:08:23.586Z,13.87
2018-10-04T20:09:25.001Z,13.81
2018-10-04T20:10:26.425Z,13.81
2018-10-04T20:11:27.836Z,13.87
2018-10-04T20:12:29.256Z,13.88
2018-10-04T20:13:30.637Z,13.86
2018-10-04T20:14:32.664Z,13.87
2018-10-04T20:15:34.690Z,13.91
2018-10-04T20:16:36.057Z,13.93
2018-10-04T20:17:37.481Z,13.80
2018-10-04T20:18:39.715Z,13.93
2018-10-04T20:19:42.005Z,13.94
2018-10-04T20:20:43.469Z,13.90
2018-10-04T20:21:45.590Z,13.88
2018-10-04T20:22:47.951Z,13.84
2018-10-04T20:23:49.922Z,13.88
2018-10-04T20:24:52.102Z,13.81
2018-10-04T20:25:53.533Z,13.83
2018-10-04T20:26:55.870Z,13.87
2018-10-04T20:27:58.060Z,13.86
2018-10-04T20:28:59.402Z,13.86
2018-10-04T20:30:00.819Z,13.83
2018-10-04T20:31:02.231Z,13.87
2018-10-04T20:32:03.636Z,13.86
2018-10-04T20:33:05.035Z,13.90
2018-10-04T20:34:06.445Z,13.91
2018-10-04T20:35:07.795Z,13.80
2018-10-04T20:36:09.802Z,13.94
2018-10-04T20:37:11.189Z,13.87
2018-10-04T20:38:13.135Z,13.83
2018-10-04T20:39:15.167Z,13.86
2018-10-04T20:40:17.893Z,13.87
2018-10-04T20:41:19.270Z,13.87
2018-10-04T20:42:20.667Z,13.83
2018-10-04T20:43:23.331Z,13.90
2018-10-04T20:44:24.614Z,13.76
2018-10-04T20:45:25.968Z,13.81
2018-10-04T20:46:27.407Z,13.86
2018-10-04T20:47:28.808Z,13.83
2018-10-04T20:48:32.211Z,13.84
2018-10-04T20:49:35.202Z,13.83
2018-10-04T20:50:36.602Z,13.86
2018-10-04T20:51:39.190Z,13.84
2018-10-04T20:52:43.257Z,13.83
2018-10-04T20:53:46.843Z,13.86
2018-10-04T20:54:50.780Z,13.86
2018-10-04T20:55:52.193Z,13.86
2018-10-04T20:56:53.562Z,13.86
2018-10-04T20:57:57.525Z,13.86
2018-10-04T20:59:01.089Z,13.91
2018-10-04T21:00:03.248Z,13.76
2018-10-04T21:01:05.468Z,13.80
2018-10-04T21:02:08.593Z,13.87
2018-10-04T21:03:09.993Z,13.88
2018-10-04T21:04:11.567Z,13.93
2018-10-04T21:05:16.098Z,13.86
2018-10-04T21:06:20.782Z,13.83
2018-10-04T21:07:24.487Z,13.81
2018-10-04T21:08:27.767Z,13.79
2018-10-04T21:09:32.096Z,13.80
2018-10-04T21:10:36.061Z,13.83
2018-10-04T21:11:40.320Z,13.81
2018-10-04T21:12:44.656Z,13.81
2018-10-04T21:13:48.768Z,13.90
2018-10-04T21:14:56.227Z,13.81
2018-10-04T21:16:00.279Z,13.80
2018-10-04T21:17:01.662Z,13.76
2018-10-04T21:18:04.150Z,13.81
2018-10-04T21:19:06.581Z,13.75
2018-10-04T21:20:14.412Z,13.79
2018-10-04T21:21:22.469Z,13.80
2018-10-04T21:22:30.435Z,13.84
2018-10-04T21:23:38.219Z,13.80
2018-10-04T21:24:42.994Z,13.73
2018-10-04T21:25:50.479Z,13.80
2018-10-04T21:26:54.975Z,13.83
2018-10-04T21:27:59.319Z,13.76
2018-10-04T21:29:00.701Z,13.73
2018-10-04T21:30:03.322Z,13.76
2018-10-04T21:31:04.699Z,13.79
2018-10-04T21:32:07.340Z,13.75
2018-10-04T21:33:08.719Z,13.79
2018-10-04T21:34:10.119Z,13.73
2018-10-04T21:35:14.856Z,13.76
2018-10-04T21:36:16.232Z,13.75
2018-10-04T21:37:17.616Z,13.72
2018-10-04T21:38:23.110Z,13.71
2018-10-04T21:39:25.974Z,13.73
2018-10-04T21:40:27.569Z,13.76
2018-10-04T21:41:28.952Z,13.75
2018-10-04T21:42:34.142Z,13.75
2018-10-04T21:43:39.372Z,13.72
2018-10-04T21:44:40.763Z,13.76
2018-10-04T21:45:42.141Z,13.76
2018-10-04T21:46:43.534Z,13.79
2018-10-04T21:47:44.898Z,13.80
2018-10-04T21:48:46.284Z,13.79
2018-10-04T21:49:47.673Z,13.76
2018-10-04T21:50:49.063Z,13.63
2018-10-04T21:51:50.445Z,13.65
2018-10-04T21:52:51.823Z,13.75
2018-10-04T21:53:53.254Z,13.65
2018-10-04T21:54:54.542Z,13.63
2018-10-04T21:55:55.919Z,13.63
2018-10-04T21:56:57.297Z,13.63
2018-10-04T21:57:58.689Z,13.69
2018-10-04T21:59:00.083Z,13.72
2018-10-04T22:00:01.470Z,13.68
2018-10-04T22:01:02.849Z,13.69
2018-10-04T22:02:04.232Z,13.69
2018-10-04T22:03:05.609Z,13.72
2018-10-04T22:04:06.995Z,13.68
2018-10-04T22:05:08.387Z,13.69
2018-10-04T22:06:09.768Z,13.68
2018-10-04T22:07:11.163Z,13.69
2018-10-04T22:08:12.541Z,13.68
2018-10-04T22:09:13.917Z,13.66
2018-10-04T22:10:15.302Z,13.65
2018-10-04T22:11:16.682Z,13.65
2018-10-04T22:12:18.072Z,13.71
2018-10-04T22:13:19.461Z,13.65
2018-10-04T22:14:20.839Z,13.68
2018-10-04T22:15:22.228Z,13.65
2018-10-04T22:16:23.600Z,13.72
2018-10-04T22:17:24.990Z,13.63
2018-10-04T22:18:26.377Z,13.68
2018-10-04T22:19:27.766Z,13.65
2018-10-04T22:20:29.149Z,13.71
2018-10-04T22:21:30.528Z,13.66
2018-10-04T22:22:31.914Z,13.68
2018-10-04T22:23:33.294Z,13.72
2018-10-04T22:24:34.680Z,13.69
2018-10-04T22:25:36.064Z,13.65
2018-10-04T22:26:37.437Z,13.63
2018-10-04T22:27:38.826Z,13.62
2018-10-04T22:28:40.214Z,13.68
2018-10-04T22:29:41.603Z,13.57
2018-10-04T22:30:42.987Z,13.69
2018-10-04T22:31:44.373Z,13.71
2018-10-04T22:32:45.757Z,13.66
2018-10-04T22:33:47.137Z,13.63
2018-10-04T22:34:48.525Z,13.71
2018-10-04T22:35:49.905Z,13.71
2018-10-04T22:36:51.289Z,13.68
2018-10-04T22:37:52.671Z,13.63
2018-10-04T22:38:54.052Z,13.65
2018-10-04T22:39:55.453Z,13.69
2018-10-04T22:40:56.829Z,13.71
2018-10-04T22:41:58.223Z,13.66
2018-10-04T22:42:59.610Z,13.71
2018-10-04T22:44:00.988Z,13.66
2018-10-04T22:45:02.390Z,13.61
2018-10-04T22:46:03.762Z,13.65
2018-10-04T22:47:05.150Z,13.66
2018-10-04T22:48:06.525Z,13.61
2018-10-04T22:49:07.900Z,13.59
2018-10-04T22:50:09.286Z,13.65
2018-10-04T22:51:10.672Z,13.68
2018-10-04T22:52:12.060Z,13.69
2018-10-04T22:53:13.444Z,13.61
2018-10-04T22:54:14.825Z,13.69
2018-10-04T22:55:16.208Z,13.68
2018-10-04T22:56:17.593Z,13.68
2018-10-04T22:57:18.981Z,13.63
2018-10-04T22:58:20.363Z,13.69
2018-10-04T22:59:21.747Z,13.66
2018-10-04T23:00:23.125Z,13.63
2018-10-04T23:01:24.526Z,13.59
2018-10-04T23:02:25.925Z,13.69
2018-10-04T23:03:27.283Z,13.65
2018-10-04T23:04:28.679Z,13.65
2018-10-04T23:05:30.063Z,13.66
2018-10-04T23:06:31.442Z,13.66
2018-10-04T23:07:32.827Z,13.59
2018-10-04T23:08:34.226Z,13.68
2018-10-04T23:09:35.595Z,13.65
2018-10-04T23:10:36.980Z,13.63
2018-10-04T23:11:38.346Z,13.63
2018-10-04T23:12:39.739Z,13.65
2018-10-04T23:13:41.112Z,13.66
2018-10-04T23:14:42.503Z,13.61
2018-10-04T23:15:43.886Z,13.65
2018-10-04T23:16:45.267Z,13.61
2018-10-04T23:17:46.644Z,13.61
2018-10-04T23:18:48.029Z,13.63
2018-10-04T23:19:49.414Z,13.63
2018-10-04T23:20:50.803Z,13.59
2018-10-04T23:21:52.181Z,13.61
2018-10-04T23:22:53.567Z,13.59
2018-10-04T23:23:54.947Z,13.63
2018-10-04T23:24:56.977Z,13.65
2018-10-04T23:25:57.663Z,13.55
2018-10-04T23:26:59.105Z,13.66
2018-10-04T23:28:00.418Z,13.62
2018-10-04T23:29:01.800Z,13.65
2018-10-04T23:30:03.188Z,13.62
2018-10-04T23:31:04.572Z,13.62
2018-10-04T23:32:05.960Z,13.63
2018-10-04T23:33:07.336Z,13.59
2018-10-04T23:34:08.722Z,13.59
2018-10-04T23:35:10.110Z,13.59
2018-10-04T23:36:11.486Z,13.59
2018-10-04T23:37:12.887Z,13.62
2018-10-04T23:38:14.274Z,13.62
2018-10-04T23:39:15.654Z,13.59
2018-10-04T23:40:17.041Z,13.63
2018-10-04T23:41:18.425Z,13.62
2018-10-04T23:42:19.801Z,13.59
2018-10-04T23:43:21.184Z,13.63
2018-10-04T23:44:22.571Z,13.63
2018-10-04T23:45:23.942Z,13.66
2018-10-04T23:46:25.333Z,13.62
2018-10-04T23:47:26.711Z,13.65
2018-10-04T23:48:28.095Z,13.62
2018-10-04T23:49:29.473Z,13.63
2018-10-04T23:50:30.861Z,13.63
2018-10-04T23:51:32.239Z,13.63
2018-10-04T23:52:33.618Z,13.61
2018-10-04T23:53:35.001Z,13.63
2018-10-04T23:54:36.385Z,13.71
2018-10-04T23:55:37.764Z,13.66
2018-10-04T23:56:39.166Z,13.62
2018-10-04T23:57:40.537Z,13.66
2018-10-04T23:58:41.935Z,13.63
2018-10-04T23:59:43.316Z,13.65
